Edinboro, Pennsylvania
Current Conditions -  °F | °C
As of 7:51 PM on Friday 19 Dec 2014 (Local Time) from KERI Reporting Station
Broken Clouds Broken Clouds  
Wind Chill: 23°   Ceiling: 2700
Heat Index: 31°   Visibility: 10mi
Dew Point: 20°   Wind: 9mph
Humidity: 64%   Direction: 300°WNW
Pressure: 30.27"   Gusts: NA
Location:  41.88°N, 80.13°W
Report Text: KERI 200051Z 30008KT 10SM BKN027 M01/M07 A3027 RMK AO2 SLP261 T10061067
Loading
Personal Weather Stations






























Interactive Weather Map New forecast layout! Learn more

10-Day Weather Forecast

Advertisements
Track Severe Weather on mobile